createdAt,value
2024-04-08T10:22:19.370Z,1.63
2024-04-08T10:32:22.732Z,1.60
2024-04-08T10:42:29.744Z,1.73
2024-04-08T10:52:34.420Z,1.20
2024-04-08T11:02:39.510Z,1.40
2024-04-08T11:12:42.473Z,1.30
2024-04-08T11:22:45.691Z,1.77
2024-04-08T11:32:48.599Z,1.90
2024-04-08T11:42:51.323Z,1.73
2024-04-08T11:52:54.768Z,1.80
2024-04-08T12:02:58.117Z,1.85
2024-04-08T12:13:17.161Z,1.67
2024-04-08T12:23:19.914Z,1.40
2024-04-08T12:33:22.677Z,1.45
2024-04-08T12:43:31.063Z,1.40
2024-04-08T12:53:39.408Z,1.60
2024-04-08T13:03:42.808Z,1.40
2024-04-08T13:13:48.177Z,1.43
2024-04-08T13:23:52.316Z,1.45
2024-04-08T13:33:57.750Z,1.77
2024-04-08T13:44:00.854Z,1.43
2024-04-08T13:54:03.896Z,1.58
2024-04-08T14:04:06.652Z,1.70
2024-04-08T14:14:09.340Z,1.70
2024-04-08T14:24:12.099Z,1.60
2024-04-08T14:34:16.108Z,1.60
2024-04-08T14:44:25.299Z,1.70
2024-04-08T14:54:35.310Z,1.40
2024-04-08T15:04:38.976Z,1.67
2024-04-08T15:14:41.630Z,1.60
2024-04-08T15:24:48.270Z,1.20
2024-04-08T15:34:52.092Z,1.13
2024-04-08T15:44:55.356Z,1.33
2024-04-08T15:54:58.086Z,1.20
2024-04-08T16:05:02.787Z,1.50
2024-04-08T16:15:07.336Z,1.15
2024-04-08T16:25:10.869Z,1.13
2024-04-08T16:35:14.037Z,0.90
2024-04-08T16:45:16.797Z,0.90
2024-04-08T16:55:19.406Z,1.30
2024-04-08T17:16:01.573Z,1.00
2024-04-08T17:26:06.709Z,0.80
2024-04-08T17:36:09.656Z,0.73
2024-04-08T17:46:12.788Z,1.02
2024-04-08T17:56:17.419Z,1.10
2024-04-08T18:06:21.713Z,1.10
2024-04-08T18:16:26.143Z,1.00
2024-04-08T18:26:29.326Z,0.90
2024-04-08T18:36:32.721Z,0.70
2024-04-08T18:46:35.871Z,0.80
2024-04-08T18:56:39.481Z,0.70
2024-04-08T19:06:42.195Z,0.70
2024-04-08T19:16:45.492Z,0.70
2024-04-08T19:26:48.361Z,0.60
2024-04-08T19:36:52.377Z,0.70
2024-04-08T19:46:55.493Z,0.80
2024-04-08T19:56:59.571Z,0.70
2024-04-08T20:07:02.641Z,0.60
2024-04-08T20:17:05.623Z,0.60
2024-04-08T20:27:09.636Z,0.60
2024-04-08T20:37:12.439Z,0.60
2024-04-08T20:47:15.051Z,0.60
2024-04-08T20:57:18.187Z,0.50
2024-04-08T21:07:20.764Z,0.50
2024-04-08T21:17:23.986Z,0.50
2024-04-08T21:27:27.256Z,0.57
2024-04-08T21:37:29.833Z,0.70
2024-04-08T21:47:32.486Z,0.60
2024-04-08T21:57:35.245Z,0.50
2024-04-08T22:07:37.815Z,0.53
2024-04-08T22:17:40.597Z,0.70
2024-04-08T22:27:43.143Z,0.70
2024-04-08T22:37:45.647Z,0.60
2024-04-08T22:47:48.675Z,0.70
2024-04-08T22:57:51.782Z,0.50
2024-04-08T23:07:54.381Z,0.60
2024-04-08T23:17:57.566Z,0.50
2024-04-08T23:28:00.309Z,0.60
2024-04-08T23:38:03.614Z,0.50
2024-04-08T23:48:06.640Z,0.60
2024-04-08T23:58:09.270Z,0.57
